sensor_id;sensor_type;location;lat;lon;timestamp;temperature;humidity
19610;DHT22;9952;47.122;-1.638;2024-02-23T00:01:21;7.60;99.90
19610;DHT22;9952;47.122;-1.638;2024-02-23T00:06:02;7.50;99.90
19610;DHT22;9952;47.122;-1.638;2024-02-23T00:10:42;7.50;99.90
19610;DHT22;9952;47.122;-1.638;2024-02-23T00:15:23;7.60;99.90
19610;DHT22;9952;47.122;-1.638;2024-02-23T00:20:08;7.70;99.90
19610;DHT22;9952;47.122;-1.638;2024-02-23T00:24:50;7.70;99.90
19610;DHT22;9952;47.122;-1.638;2024-02-23T00:29:30;7.70;99.90
19610;DHT22;9952;47.122;-1.638;2024-02-23T00:34:11;7.70;99.90
19610;DHT22;9952;47.122;-1.638;2024-02-23T00:38:53;7.70;99.90
19610;DHT22;9952;47.122;-1.638;2024-02-23T00:43:41;7.70;99.90
19610;DHT22;9952;47.122;-1.638;2024-02-23T00:48:22;7.80;99.90
19610;DHT22;9952;47.122;-1.638;2024-02-23T00:53:02;7.90;99.90
19610;DHT22;9952;47.122;-1.638;2024-02-23T00:57:43;8.00;99.90
19610;DHT22;9952;47.122;-1.638;2024-02-23T01:02:24;8.00;99.90
19610;DHT22;9952;47.122;-1.638;2024-02-23T01:07:05;8.10;99.90
19610;DHT22;9952;47.122;-1.638;2024-02-23T01:11:49;8.10;99.90
19610;DHT22;9952;47.122;-1.638;2024-02-23T01:16:29;8.10;99.90
19610;DHT22;9952;47.122;-1.638;2024-02-23T01:21:10;8.00;99.90
19610;DHT22;9952;47.122;-1.638;2024-02-23T01:25:51;8.00;99.90
19610;DHT22;9952;47.122;-1.638;2024-02-23T01:30:31;7.90;99.90
19610;DHT22;9952;47.122;-1.638;2024-02-23T01:35:12;7.90;99.90
19610;DHT22;9952;47.122;-1.638;2024-02-23T01:39:53;7.80;99.90
19610;DHT22;9952;47.122;-1.638;2024-02-23T01:44:34;7.80;99.90
19610;DHT22;9952;47.122;-1.638;2024-02-23T01:49:14;7.90;99.90
19610;DHT22;9952;47.122;-1.638;2024-02-23T01:53:55;7.90;99.90
19610;DHT22;9952;47.122;-1.638;2024-02-23T01:58:37;7.90;99.90
19610;DHT22;9952;47.122;-1.638;2024-02-23T02:03:18;7.90;99.90
19610;DHT22;9952;47.122;-1.638;2024-02-23T02:07:59;8.00;99.90
19610;DHT22;9952;47.122;-1.638;2024-02-23T02:12:41;8.00;99.90
19610;DHT22;9952;47.122;-1.638;2024-02-23T02:17:21;8.00;99.90
19610;DHT22;9952;47.122;-1.638;2024-02-23T02:22:02;8.00;99.90
19610;DHT22;9952;47.122;-1.638;2024-02-23T02:26:43;8.00;99.90
19610;DHT22;9952;47.122;-1.638;2024-02-23T02:31:25;8.00;99.90
19610;DHT22;9952;47.122;-1.638;2024-02-23T02:36:06;8.00;99.90
19610;DHT22;9952;47.122;-1.638;2024-02-23T02:40:47;8.00;99.90
19610;DHT22;9952;47.122;-1.638;2024-02-23T02:45:28;8.00;99.90
19610;DHT22;9952;47.122;-1.638;2024-02-23T02:50:09;8.10;99.90
19610;DHT22;9952;47.122;-1.638;2024-02-23T02:54:50;8.10;99.90
19610;DHT22;9952;47.122;-1.638;2024-02-23T02:59:34;8.10;99.90
19610;DHT22;9952;47.122;-1.638;2024-02-23T03:04:16;8.00;99.90
19610;DHT22;9952;47.122;-1.638;2024-02-23T03:08:56;7.90;99.90
19610;DHT22;9952;47.122;-1.638;2024-02-23T03:13:37;7.80;99.90
19610;DHT22;9952;47.122;-1.638;2024-02-23T03:18:17;7.80;99.90
19610;DHT22;9952;47.122;-1.638;2024-02-23T03:22:58;7.80;99.90
19610;DHT22;9952;47.122;-1.638;2024-02-23T03:27:39;7.80;99.90
19610;DHT22;9952;47.122;-1.638;2024-02-23T03:32:19;7.80;99.90
19610;DHT22;9952;47.122;-1.638;2024-02-23T03:37:00;7.80;99.90
19610;DHT22;9952;47.122;-1.638;2024-02-23T03:41:42;7.80;99.90
19610;DHT22;9952;47.122;-1.638;2024-02-23T03:46:23;7.80;99.90
19610;DHT22;9952;47.122;-1.638;2024-02-23T03:51:04;7.80;99.90
19610;DHT22;9952;47.122;-1.638;2024-02-23T03:55:45;7.70;99.90
19610;DHT22;9952;47.122;-1.638;2024-02-23T04:00:26;7.70;99.90
19610;DHT22;9952;47.122;-1.638;2024-02-23T04:05:25;7.60;99.90
19610;DHT22;9952;47.122;-1.638;2024-02-23T04:10:06;7.60;99.90
19610;DHT22;9952;47.122;-1.638;2024-02-23T04:14:47;7.60;99.90
19610;DHT22;9952;47.122;-1.638;2024-02-23T04:19:28;7.60;99.90
19610;DHT22;9952;47.122;-1.638;2024-02-23T04:24:08;7.60;99.90
19610;DHT22;9952;47.122;-1.638;2024-02-23T04:28:49;7.60;99.90
19610;DHT22;9952;47.122;-1.638;2024-02-23T04:33:30;7.60;99.90
19610;DHT22;9952;47.122;-1.638;2024-02-23T04:38:11;7.60;99.90
19610;DHT22;9952;47.122;-1.638;2024-02-23T04:42:52;7.70;99.90
19610;DHT22;9952;47.122;-1.638;2024-02-23T04:47:32;7.70;99.90
19610;DHT22;9952;47.122;-1.638;2024-02-23T04:52:13;7.70;99.90
19610;DHT22;9952;47.122;-1.638;2024-02-23T04:56:53;7.70;99.90
19610;DHT22;9952;47.122;-1.638;2024-02-23T05:01:37;7.70;99.90
19610;DHT22;9952;47.122;-1.638;2024-02-23T05:06:18;7.80;99.90
19610;DHT22;9952;47.122;-1.638;2024-02-23T05:10:59;7.80;99.90
19610;DHT22;9952;47.122;-1.638;2024-02-23T05:15:39;7.90;99.90
19610;DHT22;9952;47.122;-1.638;2024-02-23T05:20:20;8.00;99.90
19610;DHT22;9952;47.122;-1.638;2024-02-23T05:25:01;8.10;99.90
19610;DHT22;9952;47.122;-1.638;2024-02-23T05:29:41;8.10;99.90
19610;DHT22;9952;47.122;-1.638;2024-02-23T05:34:22;7.90;99.90
19610;DHT22;9952;47.122;-1.638;2024-02-23T05:39:03;7.70;99.90
19610;DHT22;9952;47.122;-1.638;2024-02-23T05:43:43;7.60;99.90
19610;DHT22;9952;47.122;-1.638;2024-02-23T05:48:24;7.60;99.90
19610;DHT22;9952;47.122;-1.638;2024-02-23T05:53:05;7.40;99.90
19610;DHT22;9952;47.122;-1.638;2024-02-23T05:57:46;6.50;99.90
19610;DHT22;9952;47.122;-1.638;2024-02-23T06:02:27;6.20;99.90
19610;DHT22;9952;47.122;-1.638;2024-02-23T06:07:07;6.20;99.90
19610;DHT22;9952;47.122;-1.638;2024-02-23T06:11:48;6.20;99.90
19610;DHT22;9952;47.122;-1.638;2024-02-23T06:16:29;6.30;99.90
19610;DHT22;9952;47.122;-1.638;2024-02-23T06:21:16;6.40;99.90
19610;DHT22;9952;47.122;-1.638;2024-02-23T06:25:57;6.50;99.90
19610;DHT22;9952;47.122;-1.638;2024-02-23T06:30:38;6.50;99.90
19610;DHT22;9952;47.122;-1.638;2024-02-23T06:35:19;6.60;99.90
19610;DHT22;9952;47.122;-1.638;2024-02-23T06:39:59;6.60;99.90
19610;DHT22;9952;47.122;-1.638;2024-02-23T06:44:40;6.60;99.90
19610;DHT22;9952;47.122;-1.638;2024-02-23T06:49:21;6.60;99.90
19610;DHT22;9952;47.122;-1.638;2024-02-23T06:54:02;6.70;99.90
19610;DHT22;9952;47.122;-1.638;2024-02-23T06:58:44;6.60;99.90
19610;DHT22;9952;47.122;-1.638;2024-02-23T07:03:24;6.50;99.90
19610;DHT22;9952;47.122;-1.638;2024-02-23T07:08:05;6.40;99.90
19610;DHT22;9952;47.122;-1.638;2024-02-23T07:12:46;6.30;99.90
19610;DHT22;9952;47.122;-1.638;2024-02-23T07:17:27;6.30;99.90
19610;DHT22;9952;47.122;-1.638;2024-02-23T07:22:08;6.30;99.90
19610;DHT22;9952;47.122;-1.638;2024-02-23T07:26:49;6.30;99.90
19610;DHT22;9952;47.122;-1.638;2024-02-23T07:31:29;6.30;99.90
19610;DHT22;9952;47.122;-1.638;2024-02-23T07:36:17;6.30;99.90
19610;DHT22;9952;47.122;-1.638;2024-02-23T07:40:58;6.40;99.90
19610;DHT22;9952;47.122;-1.638;2024-02-23T07:45:39;6.50;99.90
19610;DHT22;9952;47.122;-1.638;2024-02-23T07:50:19;6.60;99.90
19610;DHT22;9952;47.122;-1.638;2024-02-23T07:55:00;6.70;99.90
19610;DHT22;9952;47.122;-1.638;2024-02-23T07:59:43;6.90;99.90
19610;DHT22;9952;47.122;-1.638;2024-02-23T08:04:23;7.00;99.90
19610;DHT22;9952;47.122;-1.638;2024-02-23T08:09:04;7.00;99.90
19610;DHT22;9952;47.122;-1.638;2024-02-23T08:13:45;6.90;99.90
19610;DHT22;9952;47.122;-1.638;2024-02-23T08:18:25;6.90;99.90
19610;DHT22;9952;47.122;-1.638;2024-02-23T08:23:07;6.90;99.90
19610;DHT22;9952;47.122;-1.638;2024-02-23T08:27:49;7.00;99.90
19610;DHT22;9952;47.122;-1.638;2024-02-23T08:32:30;7.10;99.90
19610;DHT22;9952;47.122;-1.638;2024-02-23T08:37:10;7.10;99.90
19610;DHT22;9952;47.122;-1.638;2024-02-23T08:41:52;7.20;99.90
19610;DHT22;9952;47.122;-1.638;2024-02-23T08:46:34;7.20;99.90
19610;DHT22;9952;47.122;-1.638;2024-02-23T08:51:14;7.40;99.90
19610;DHT22;9952;47.122;-1.638;2024-02-23T08:55:55;7.40;99.90
19610;DHT22;9952;47.122;-1.638;2024-02-23T09:00:36;7.40;99.90
19610;DHT22;9952;47.122;-1.638;2024-02-23T09:05:17;7.40;99.90
19610;DHT22;9952;47.122;-1.638;2024-02-23T09:09:58;7.30;99.90
19610;DHT22;9952;47.122;-1.638;2024-02-23T09:14:38;7.40;99.90
19610;DHT22;9952;47.122;-1.638;2024-02-23T09:19:21;7.40;99.90
19610;DHT22;9952;47.122;-1.638;2024-02-23T09:24:02;7.40;99.90
19610;DHT22;9952;47.122;-1.638;2024-02-23T09:28:43;7.40;99.90
19610;DHT22;9952;47.122;-1.638;2024-02-23T09:33:25;7.40;99.90
19610;DHT22;9952;47.122;-1.638;2024-02-23T09:38:06;7.40;99.90
19610;DHT22;9952;47.122;-1.638;2024-02-23T09:42:57;7.50;99.90
19610;DHT22;9952;47.122;-1.638;2024-02-23T09:47:40;7.60;99.90
19610;DHT22;9952;47.122;-1.638;2024-02-23T09:52:21;7.70;99.90
19610;DHT22;9952;47.122;-1.638;2024-02-23T09:57:08;7.70;99.90
19610;DHT22;9952;47.122;-1.638;2024-02-23T10:01:49;7.80;99.90
19610;DHT22;9952;47.122;-1.638;2024-02-23T10:06:33;7.90;99.90
19610;DHT22;9952;47.122;-1.638;2024-02-23T10:11:13;8.10;99.90
19610;DHT22;9952;47.122;-1.638;2024-02-23T10:15:54;8.20;99.90
19610;DHT22;9952;47.122;-1.638;2024-02-23T10:20:35;8.30;99.90
19610;DHT22;9952;47.122;-1.638;2024-02-23T10:25:17;8.40;99.90
19610;DHT22;9952;47.122;-1.638;2024-02-23T10:29:58;8.40;99.90
19610;DHT22;9952;47.122;-1.638;2024-02-23T10:34:39;8.50;99.90
19610;DHT22;9952;47.122;-1.638;2024-02-23T10:39:23;8.60;99.90
19610;DHT22;9952;47.122;-1.638;2024-02-23T10:44:05;8.60;99.90
19610;DHT22;9952;47.122;-1.638;2024-02-23T10:48:48;8.70;99.90
19610;DHT22;9952;47.122;-1.638;2024-02-23T10:53:30;8.80;99.90
19610;DHT22;9952;47.122;-1.638;2024-02-23T10:58:12;8.90;99.90
19610;DHT22;9952;47.122;-1.638;2024-02-23T11:02:55;8.90;99.90
19610;DHT22;9952;47.122;-1.638;2024-02-23T11:07:38;8.80;99.90
19610;DHT22;9952;47.122;-1.638;2024-02-23T11:12:24;8.70;99.90
19610;DHT22;9952;47.122;-1.638;2024-02-23T11:17:05;8.50;99.90
19610;DHT22;9952;47.122;-1.638;2024-02-23T11:21:52;8.50;99.90
19610;DHT22;9952;47.122;-1.638;2024-02-23T11:26:37;8.50;99.90
19610;DHT22;9952;47.122;-1.638;2024-02-23T11:31:24;8.60;99.90
19610;DHT22;9952;47.122;-1.638;2024-02-23T11:36:08;8.80;99.90
19610;DHT22;9952;47.122;-1.638;2024-02-23T11:40:49;9.00;99.90
19610;DHT22;9952;47.122;-1.638;2024-02-23T11:45:32;9.50;99.90
19610;DHT22;9952;47.122;-1.638;2024-02-23T11:50:14;10.20;99.90
19610;DHT22;9952;47.122;-1.638;2024-02-23T11:55:00;10.40;99.90
19610;DHT22;9952;47.122;-1.638;2024-02-23T11:59:41;10.70;99.90
19610;DHT22;9952;47.122;-1.638;2024-02-23T12:04:22;11.00;99.90
19610;DHT22;9952;47.122;-1.638;2024-02-23T12:09:03;11.40;99.90
19610;DHT22;9952;47.122;-1.638;2024-02-23T12:13:45;11.90;99.90
19610;DHT22;9952;47.122;-1.638;2024-02-23T12:18:26;12.00;99.90
19610;DHT22;9952;47.122;-1.638;2024-02-23T12:23:08;12.00;99.90
19610;DHT22;9952;47.122;-1.638;2024-02-23T12:27:56;12.10;99.90
19610;DHT22;9952;47.122;-1.638;2024-02-23T12:32:37;12.30;99.90
19610;DHT22;9952;47.122;-1.638;2024-02-23T12:37:18;12.40;99.90
19610;DHT22;9952;47.122;-1.638;2024-02-23T12:41:59;12.60;99.90
19610;DHT22;9952;47.122;-1.638;2024-02-23T12:46:40;12.30;99.90
19610;DHT22;9952;47.122;-1.638;2024-02-23T12:51:25;11.90;99.90
19610;DHT22;9952;47.122;-1.638;2024-02-23T13:00:50;11.20;99.90
19610;DHT22;9952;47.122;-1.638;2024-02-23T13:05:30;11.10;99.90
19610;DHT22;9952;47.122;-1.638;2024-02-23T13:10:11;11.00;99.90
19610;DHT22;9952;47.122;-1.638;2024-02-23T13:14:52;10.70;99.90
19610;DHT22;9952;47.122;-1.638;2024-02-23T13:19:32;10.30;99.90
19610;DHT22;9952;47.122;-1.638;2024-02-23T13:24:13;9.90;99.90
19610;DHT22;9952;47.122;-1.638;2024-02-23T13:28:54;9.60;99.90
19610;DHT22;9952;47.122;-1.638;2024-02-23T13:33:34;9.50;99.90
19610;DHT22;9952;47.122;-1.638;2024-02-23T13:38:15;9.20;99.90
19610;DHT22;9952;47.122;-1.638;2024-02-23T13:42:55;8.80;99.90
19610;DHT22;9952;47.122;-1.638;2024-02-23T13:47:36;8.50;99.90
19610;DHT22;9952;47.122;-1.638;2024-02-23T13:52:17;8.40;99.90
19610;DHT22;9952;47.122;-1.638;2024-02-23T13:56:57;8.40;99.90
19610;DHT22;9952;47.122;-1.638;2024-02-23T14:01:38;8.20;99.90
19610;DHT22;9952;47.122;-1.638;2024-02-23T14:06:19;8.20;99.90
19610;DHT22;9952;47.122;-1.638;2024-02-23T14:11:00;8.30;99.90
19610;DHT22;9952;47.122;-1.638;2024-02-23T14:15:41;8.40;99.90
19610;DHT22;9952;47.122;-1.638;2024-02-23T14:20:22;8.50;99.90
19610;DHT22;9952;47.122;-1.638;2024-02-23T14:25:03;8.70;99.90
19610;DHT22;9952;47.122;-1.638;2024-02-23T14:29:43;9.00;99.90
19610;DHT22;9952;47.122;-1.638;2024-02-23T14:34:24;9.40;99.90
19610;DHT22;9952;47.122;-1.638;2024-02-23T14:39:05;9.70;99.90
19610;DHT22;9952;47.122;-1.638;2024-02-23T14:43:45;9.80;99.90
19610;DHT22;9952;47.122;-1.638;2024-02-23T14:48:26;9.90;99.90
19610;DHT22;9952;47.122;-1.638;2024-02-23T14:53:07;9.80;99.90
19610;DHT22;9952;47.122;-1.638;2024-02-23T14:57:49;9.90;99.90
19610;DHT22;9952;47.122;-1.638;2024-02-23T15:02:29;10.00;99.90
19610;DHT22;9952;47.122;-1.638;2024-02-23T15:07:10;9.90;99.90
19610;DHT22;9952;47.122;-1.638;2024-02-23T15:11:51;9.60;99.90
19610;DHT22;9952;47.122;-1.638;2024-02-23T15:16:31;9.70;99.90
19610;DHT22;9952;47.122;-1.638;2024-02-23T15:21:12;9.50;99.90
19610;DHT22;9952;47.122;-1.638;2024-02-23T15:25:55;9.40;99.90
19610;DHT22;9952;47.122;-1.638;2024-02-23T15:30:36;9.40;99.90
19610;DHT22;9952;47.122;-1.638;2024-02-23T15:35:17;9.60;99.90
19610;DHT22;9952;47.122;-1.638;2024-02-23T15:39:57;9.50;99.90
19610;DHT22;9952;47.122;-1.638;2024-02-23T15:44:38;9.40;99.90
19610;DHT22;9952;47.122;-1.638;2024-02-23T15:49:19;8.80;99.90
19610;DHT22;9952;47.122;-1.638;2024-02-23T15:54:00;8.40;99.90
19610;DHT22;9952;47.122;-1.638;2024-02-23T15:58:41;8.20;99.90
19610;DHT22;9952;47.122;-1.638;2024-02-23T16:03:21;8.20;99.90
19610;DHT22;9952;47.122;-1.638;2024-02-23T16:08:02;8.10;99.90
19610;DHT22;9952;47.122;-1.638;2024-02-23T16:12:50;8.20;99.90
19610;DHT22;9952;47.122;-1.638;2024-02-23T16:17:35;8.30;99.90
19610;DHT22;9952;47.122;-1.638;2024-02-23T16:22:17;8.40;99.90
19610;DHT22;9952;47.122;-1.638;2024-02-23T16:26:57;8.60;99.90
19610;DHT22;9952;47.122;-1.638;2024-02-23T16:31:38;8.60;99.90
19610;DHT22;9952;47.122;-1.638;2024-02-23T16:36:20;8.50;99.90
19610;DHT22;9952;47.122;-1.638;2024-02-23T16:41:00;8.40;99.90
19610;DHT22;9952;47.122;-1.638;2024-02-23T16:45:41;8.40;99.90
19610;DHT22;9952;47.122;-1.638;2024-02-23T16:50:22;8.20;99.90
19610;DHT22;9952;47.122;-1.638;2024-02-23T16:55:03;8.10;99.90
19610;DHT22;9952;47.122;-1.638;2024-02-23T16:59:44;8.10;99.90
19610;DHT22;9952;47.122;-1.638;2024-02-23T17:04:25;8.10;99.90
19610;DHT22;9952;47.122;-1.638;2024-02-23T17:09:05;8.10;99.90
19610;DHT22;9952;47.122;-1.638;2024-02-23T17:13:50;8.10;99.90
19610;DHT22;9952;47.122;-1.638;2024-02-23T17:18:30;8.10;99.90
19610;DHT22;9952;47.122;-1.638;2024-02-23T17:23:11;8.10;99.90
19610;DHT22;9952;47.122;-1.638;2024-02-23T17:27:53;8.10;99.90
19610;DHT22;9952;47.122;-1.638;2024-02-23T17:32:33;8.00;99.90
19610;DHT22;9952;47.122;-1.638;2024-02-23T17:37:14;7.50;99.90
19610;DHT22;9952;47.122;-1.638;2024-02-23T17:41:55;6.70;99.90
19610;DHT22;9952;47.122;-1.638;2024-02-23T17:46:36;6.40;99.90
19610;DHT22;9952;47.122;-1.638;2024-02-23T17:51:16;6.30;99.90
19610;DHT22;9952;47.122;-1.638;2024-02-23T17:55:58;6.30;99.90
19610;DHT22;9952;47.122;-1.638;2024-02-23T18:00:39;6.40;99.90
19610;DHT22;9952;47.122;-1.638;2024-02-23T18:05:20;6.40;99.90
19610;DHT22;9952;47.122;-1.638;2024-02-23T18:10:00;6.50;99.90
19610;DHT22;9952;47.122;-1.638;2024-02-23T18:14:41;6.60;99.90
19610;DHT22;9952;47.122;-1.638;2024-02-23T18:19:22;6.50;99.90
19610;DHT22;9952;47.122;-1.638;2024-02-23T18:24:02;6.50;99.90
19610;DHT22;9952;47.122;-1.638;2024-02-23T18:28:44;6.40;99.90
19610;DHT22;9952;47.122;-1.638;2024-02-23T18:33:25;6.40;99.90
19610;DHT22;9952;47.122;-1.638;2024-02-23T18:38:06;6.40;99.90
19610;DHT22;9952;47.122;-1.638;2024-02-23T18:42:47;6.40;99.90
19610;DHT22;9952;47.122;-1.638;2024-02-23T18:47:28;6.30;99.90
19610;DHT22;9952;47.122;-1.638;2024-02-23T18:52:08;6.30;99.90
19610;DHT22;9952;47.122;-1.638;2024-02-23T18:56:49;6.10;99.90
19610;DHT22;9952;47.122;-1.638;2024-02-23T19:01:30;6.10;99.90
19610;DHT22;9952;47.122;-1.638;2024-02-23T19:06:11;6.10;99.90
19610;DHT22;9952;47.122;-1.638;2024-02-23T19:10:52;6.10;99.90
19610;DHT22;9952;47.122;-1.638;2024-02-23T19:15:34;6.10;99.90
19610;DHT22;9952;47.122;-1.638;2024-02-23T19:20:15;6.10;99.90
19610;DHT22;9952;47.122;-1.638;2024-02-23T19:24:56;6.00;99.90
19610;DHT22;9952;47.122;-1.638;2024-02-23T19:29:36;6.00;99.90
19610;DHT22;9952;47.122;-1.638;2024-02-23T19:34:17;5.90;99.90
19610;DHT22;9952;47.122;-1.638;2024-02-23T19:38:58;5.80;99.90
19610;DHT22;9952;47.122;-1.638;2024-02-23T19:43:38;5.80;99.90
19610;DHT22;9952;47.122;-1.638;2024-02-23T19:48:20;5.70;99.90
19610;DHT22;9952;47.122;-1.638;2024-02-23T19:53:00;5.60;99.90
19610;DHT22;9952;47.122;-1.638;2024-02-23T19:57:41;5.60;99.90
19610;DHT22;9952;47.122;-1.638;2024-02-23T20:02:22;5.60;99.90
19610;DHT22;9952;47.122;-1.638;2024-02-23T20:07:02;5.60;99.90
19610;DHT22;9952;47.122;-1.638;2024-02-23T20:11:46;5.60;99.90
19610;DHT22;9952;47.122;-1.638;2024-02-23T20:16:28;5.40;99.90
19610;DHT22;9952;47.122;-1.638;2024-02-23T20:21:08;5.20;99.90
19610;DHT22;9952;47.122;-1.638;2024-02-23T20:25:49;5.10;99.90
19610;DHT22;9952;47.122;-1.638;2024-02-23T20:30:30;5.10;99.90
19610;DHT22;9952;47.122;-1.638;2024-02-23T20:35:10;5.10;99.90
19610;DHT22;9952;47.122;-1.638;2024-02-23T20:39:51;5.20;99.90
19610;DHT22;9952;47.122;-1.638;2024-02-23T20:44:32;5.20;99.90
19610;DHT22;9952;47.122;-1.638;2024-02-23T20:49:13;5.20;99.90
19610;DHT22;9952;47.122;-1.638;2024-02-23T20:53:53;5.20;99.90
19610;DHT22;9952;47.122;-1.638;2024-02-23T20:58:34;5.30;99.90
19610;DHT22;9952;47.122;-1.638;2024-02-23T21:03:15;5.30;99.90
19610;DHT22;9952;47.122;-1.638;2024-02-23T21:07:56;5.30;99.90
19610;DHT22;9952;47.122;-1.638;2024-02-23T21:12:37;5.30;99.90
19610;DHT22;9952;47.122;-1.638;2024-02-23T21:17:18;5.30;99.90
19610;DHT22;9952;47.122;-1.638;2024-02-23T21:21:59;5.30;99.90
19610;DHT22;9952;47.122;-1.638;2024-02-23T21:26:40;5.20;99.90
19610;DHT22;9952;47.122;-1.638;2024-02-23T21:31:21;5.20;99.90
19610;DHT22;9952;47.122;-1.638;2024-02-23T21:36:02;5.10;99.90
19610;DHT22;9952;47.122;-1.638;2024-02-23T21:40:43;5.10;99.90
19610;DHT22;9952;47.122;-1.638;2024-02-23T21:45:24;5.10;99.90
19610;DHT22;9952;47.122;-1.638;2024-02-23T21:50:05;5.20;99.90
19610;DHT22;9952;47.122;-1.638;2024-02-23T21:54:46;5.30;99.90
19610;DHT22;9952;47.122;-1.638;2024-02-23T21:59:27;5.50;99.90
19610;DHT22;9952;47.122;-1.638;2024-02-23T22:04:10;5.50;99.90
19610;DHT22;9952;47.122;-1.638;2024-02-23T22:08:50;5.50;99.90
19610;DHT22;9952;47.122;-1.638;2024-02-23T22:13:31;5.40;99.90
19610;DHT22;9952;47.122;-1.638;2024-02-23T22:18:12;5.30;99.90
19610;DHT22;9952;47.122;-1.638;2024-02-23T22:22:53;5.20;99.90
19610;DHT22;9952;47.122;-1.638;2024-02-23T22:27:34;5.20;99.90
19610;DHT22;9952;47.122;-1.638;2024-02-23T22:32:15;5.20;99.90
19610;DHT22;9952;47.122;-1.638;2024-02-23T22:36:55;5.20;99.90
19610;DHT22;9952;47.122;-1.638;2024-02-23T22:41:36;5.40;99.90
19610;DHT22;9952;47.122;-1.638;2024-02-23T22:46:19;5.50;99.90
19610;DHT22;9952;47.122;-1.638;2024-02-23T22:51:00;5.50;99.90
19610;DHT22;9952;47.122;-1.638;2024-02-23T22:55:40;5.60;99.90
19610;DHT22;9952;47.122;-1.638;2024-02-23T23:00:23;5.60;99.90
19610;DHT22;9952;47.122;-1.638;2024-02-23T23:05:03;5.60;99.90
19610;DHT22;9952;47.122;-1.638;2024-02-23T23:09:44;5.60;99.90
19610;DHT22;9952;47.122;-1.638;2024-02-23T23:14:25;5.60;99.90
19610;DHT22;9952;47.122;-1.638;2024-02-23T23:19:06;5.70;99.90
19610;DHT22;9952;47.122;-1.638;2024-02-23T23:23:46;5.70;99.90
19610;DHT22;9952;47.122;-1.638;2024-02-23T23:28:27;5.70;99.90
19610;DHT22;9952;47.122;-1.638;2024-02-23T23:33:07;5.60;99.90
19610;DHT22;9952;47.122;-1.638;2024-02-23T23:37:48;5.70;99.90
19610;DHT22;9952;47.122;-1.638;2024-02-23T23:42:29;5.60;99.90
19610;DHT22;9952;47.122;-1.638;2024-02-23T23:47:09;5.50;99.90
19610;DHT22;9952;47.122;-1.638;2024-02-23T23:51:50;5.50;99.90
19610;DHT22;9952;47.122;-1.638;2024-02-23T23:56:31;5.50;99.90
